Pagina principale
METAR-TAF:

METAR-TAF

Aeroporti :

Aeroporto di Lugano-Agno

Lugano, Svizzera

latitudine: 46-00N, longitudine: 008-58E, altezza: 273 m

Osservazione

Il bollettino è stato emesso 39 minuti fa, alle 12:20 UTC
Vento 3 kt da sud/sud-ovest
Temperature 7°C
Umidità 61%
Pressione 1023 hPa
Visibilità 10 km o più
nessuna nube inferiore a 1500 m e nessun cumulonembo

METAR: LSZA 061220Z 20003KT CAVOK 07/00 Q1023 NOSIG

Ora: 13:59 (12:59 UTC)

Previsione

Il bollettino è stato emesso 1 ora e 34 minuti fa, alle 11:25 UTC
Previsione valida dal 06 alle 12 UTC al 06 alle 21 UTC
Vento 2 kt da direzioni variabili
Visibilità 10 km o più
nessuna nube inferiore a 1500 m e nessun cumulonembo

TAF: LSZA 061125Z 0612/0621 VRB02KT CAVOK

Osservazioni e previsioni meteorologiche di più di 4000 aeroporti (messaggi METAR e TAF).

Le stazioni disponibili sono rappresentate dai dischi gialli e rossi sulla carta.

Puntare il mouse per vedere il nome della stazione.

Clicca sopra per visualizzare le osservazioni e previsioni meteorologiche.

Per cambiare la mappa : fare clic sui pulsanti verdi con una croce nera per ingrandire, il pulsante verde con un trattino per diminuire, o sulla freccia verde per le mappe adiacenti.


METAR-TAF: